Time;durP1;ratioP1;P1;durP2;ratioP2;P2;SDS_P1;SDS_P2;PMS_P1;PMS_P2;Temp;Humidity;BMP_temperature;BMP_pressure;BME280_temperature;BME280_humidity;BME280_pressure;Samples;Min_cycle;Max_cycle;Signal;HPM_P1;HPM_P2
2023/03/30 00:00:18;;;;;;;6.80;3.67;;;;;;;13.62;76.07;96427.88;5017195;28;20310;-71
2023/03/30 00:02:45;;;;;;;6.27;3.67;;;;;;;13.61;76.26;96425.47;5013568;28;20649;-71
2023/03/30 00:05:12;;;;;;;10.80;3.60;;;;;;;13.60;76.18;96419.41;5032946;28;20339;-71
2023/03/30 00:07:39;;;;;;;10.33;4.03;;;;;;;13.59;75.44;96420.47;5045421;28;20215;-71
2023/03/30 00:10:05;;;;;;;6.57;4.00;;;;;;;13.61;75.89;96426.28;5038479;28;20190;-71
2023/03/30 00:12:31;;;;;;;6.63;3.40;;;;;;;13.61;75.44;96431.53;5032663;28;20199;-71
2023/03/30 00:14:56;;;;;;;8.63;4.97;;;;;;;13.61;74.70;96434.16;5037160;28;20324;-71
2023/03/30 00:17:21;;;;;;;7.67;4.57;;;;;;;13.65;74.81;96435.25;5039938;28;20190;-71
2023/03/30 00:19:47;;;;;;;10.57;5.43;;;;;;;13.67;73.93;96438.44;5048150;28;20193;-71
2023/03/30 00:22:12;;;;;;;14.87;5.63;;;;;;;13.71;74.50;96430.81;5052217;28;20181;-71
2023/03/30 00:24:38;;;;;;;9.43;4.83;;;;;;;13.65;74.67;96426.56;5047524;28;20601;-71
2023/03/30 00:27:03;;;;;;;6.83;4.67;;;;;;;13.66;74.60;96415.75;5038070;28;20209;-71
2023/03/30 00:29:29;;;;;;;11.17;4.87;;;;;;;13.73;74.59;96416.34;5052465;28;20212;-72
2023/03/30 00:31:54;;;;;;;10.80;4.40;;;;;;;13.73;74.67;96421.59;5052815;28;20200;-71
2023/03/30 00:34:20;;;;;;;9.20;4.80;;;;;;;13.74;74.85;96410.03;5049992;28;20475;-71
2023/03/30 00:36:47;;;;;;;8.20;4.80;;;;;;;13.70;74.88;96414.22;5032995;28;20214;-71
2023/03/30 00:39:13;;;;;;;13.83;4.67;;;;;;;13.71;74.93;96404.47;5032491;28;20178;-71
2023/03/30 00:41:39;;;;;;;8.13;3.33;;;;;;;13.73;75.05;96403.16;5032749;28;20563;-71
2023/03/30 00:44:26;;;;;;;11.13;3.47;;;;;;;13.77;74.98;96397.38;5014550;28;20257;-71
2023/03/30 00:46:51;;;;;;;12.80;4.23;;;;;;;13.76;74.89;96401.09;5054891;28;20749;-71
2023/03/30 00:49:16;;;;;;;5.40;3.23;;;;;;;13.76;75.06;96396.63;5036546;28;20203;-71
2023/03/30 00:51:42;;;;;;;11.20;3.47;;;;;;;13.81;74.88;96382.66;5036473;28;20190;-71
2023/03/30 00:54:12;;;;;;;10.80;4.10;;;;;;;13.79;75.12;96372.38;5037098;28;20214;-71
2023/03/30 00:56:37;;;;;;;7.23;3.43;;;;;;;13.74;75.18;96375.00;5056412;28;20190;-71
2023/03/30 00:59:03;;;;;;;10.20;3.80;;;;;;;13.71;75.54;96378.13;5056709;28;20178;-71
2023/03/30 01:01:32;;;;;;;12.10;3.83;;;;;;;13.80;75.24;96375.81;5044162;28;20317;-71
2023/03/30 01:04:01;;;;;;;8.67;4.07;;;;;;;13.79;75.37;96374.22;5036459;28;20182;-71
2023/03/30 01:06:28;;;;;;;9.67;3.97;;;;;;;13.73;75.73;96370.78;5055505;28;20289;-71
2023/03/30 01:08:55;;;;;;;8.97;3.70;;;;;;;13.76;75.65;96364.22;5056155;28;20261;-71
2023/03/30 01:11:21;;;;;;;15.63;3.50;;;;;;;13.74;75.77;96365.25;5056208;28;20596;-71
2023/03/30 01:13:50;;;;;;;7.67;4.13;;;;;;;13.72;76.34;96362.06;5054254;28;20273;-71
2023/03/30 01:16:34;;;;;;;8.23;4.77;;;;;;;13.73;76.48;96352.34;5037570;28;20195;-71
2023/03/30 01:19:08;;;;;;;11.00;5.20;;;;;;;13.66;76.38;96342.03;5036586;28;20193;-71
2023/03/30 01:21:42;;;;;;;8.23;5.30;;;;;;;13.69;76.86;96357.31;5039745;28;20638;-72
2023/03/30 01:24:31;;;;;;;8.60;5.10;;;;;;;13.72;76.80;96362.06;5035765;28;20163;-71
2023/03/30 01:26:59;;;;;;;9.63;5.50;;;;;;;13.75;76.78;96371.31;5036124;28;20195;-71
2023/03/30 01:29:25;;;;;;;11.83;6.10;;;;;;;13.70;77.24;96374.72;5036022;28;20258;-71
2023/03/30 01:32:26;;;;;;;8.87;5.43;;;;;;;13.70;77.49;96395.00;5050952;28;20186;-71
2023/03/30 01:35:20;;;;;;;8.63;6.37;;;;;;;13.66;81.54;96404.44;5055811;28;20189;-71
2023/03/30 01:37:55;;;;;;;13.17;5.30;;;;;;;13.51;85.99;96399.09;5055270;28;20265;-71
2023/03/30 01:40:43;;;;;;;15.77;10.60;;;;;;;13.41;88.86;96410.34;5052022;28;20174;-71
2023/03/30 01:43:19;;;;;;;104.23;98.23;;;;;;;13.41;90.61;96389.28;5035542;28;20186;-72
2023/03/30 01:45:54;;;;;;;10.97;5.63;;;;;;;13.32;92.19;96378.44;5049815;28;20192;-71
2023/03/30 01:48:44;;;;;;;12.60;5.73;;;;;;;13.38;93.97;96373.19;5039553;28;20209;-71
2023/03/30 01:51:15;;;;;;;11.13;4.97;;;;;;;13.28;95.17;96373.94;5027364;28;20576;-71
2023/03/30 01:54:07;;;;;;;14.87;5.20;;;;;;;13.25;97.14;96361.28;5054762;28;20178;-71
2023/03/30 01:56:42;;;;;;;9.77;5.30;;;;;;;13.26;99.57;96361.00;5032978;28;20279;-71
2023/03/30 01:59:19;;;;;;;9.27;5.23;;;;;;;13.20;100.00;96377.84;5055203;28;20219;-70
2023/03/30 02:01:49;;;;;;;9.57;4.27;;;;;;;13.24;100.00;96380.75;5037555;28;20242;-70
2023/03/30 02:04:17;;;;;;;10.87;4.53;;;;;;;13.18;100.00;96390.44;5024245;28;20234;-71
2023/03/30 02:06:48;;;;;;;9.40;4.70;;;;;;;13.17;100.00;96383.59;5016981;28;20605;-71
2023/03/30 02:09:18;;;;;;;12.53;5.03;;;;;;;13.11;100.00;96387.19;5034675;28;20266;-71
2023/03/30 02:11:47;;;;;;;10.63;6.63;;;;;;;13.11;100.00;96381.94;5027918;28;20182;-71
2023/03/30 02:14:16;;;;;;;10.27;4.93;;;;;;;13.10;100.00;96382.97;5034535;28;20623;-71
2023/03/30 02:16:46;;;;;;;10.33;4.80;;;;;;;13.09;100.00;96386.69;5022589;28;20242;-71
2023/03/30 02:19:14;;;;;;;10.83;5.67;;;;;;;13.06;100.00;96391.63;4997311;28;20175;-71
2023/03/30 02:21:41;;;;;;;15.40;5.40;;;;;;;13.04;100.00;96388.47;5015053;28;20678;-71
2023/03/30 02:24:16;;;;;;;12.37;5.87;;;;;;;13.00;100.00;96384.75;5015098;28;20190;-71
2023/03/30 02:26:45;;;;;;;7.60;5.13;;;;;;;12.97;100.00;96398.41;4997072;28;20195;-71
2023/03/30 02:29:12;;;;;;;8.17;5.83;;;;;;;12.88;100.00;96395.44;5014835;28;20266;-71
2023/03/30 02:31:37;;;;;;;13.83;7.93;;;;;;;12.93;100.00;96400.72;4997197;28;20314;-71
2023/03/30 02:34:09;;;;;;;11.17;7.77;;;;;;;12.95;100.00;96409.19;5014761;28;20187;-71
2023/03/30 02:36:52;;;;;;;10.70;7.63;;;;;;;12.88;100.00;96401.50;5014565;28;20187;-71
2023/03/30 02:39:27;;;;;;;19.03;9.90;;;;;;;12.87;100.00;96405.16;5014457;28;20306;-71
2023/03/30 02:42:27;;;;;;;14.37;8.40;;;;;;;12.81;100.00;96400.13;5014702;28;20259;-71
2023/03/30 02:45:17;;;;;;;12.03;7.97;;;;;;;12.81;100.00;96398.28;4996542;28;20187;-71
2023/03/30 02:47:50;;;;;;;11.37;5.60;;;;;;;12.77;100.00;96397.19;5013179;28;20296;-71
2023/03/30 02:51:04;;;;;;;10.10;6.33;;;;;;;12.72;100.00;96407.66;5014066;28;20579;-70
2023/03/30 02:53:44;;;;;;;10.40;6.80;;;;;;;12.61;100.00;96395.47;5021422;28;20201;-70
2023/03/30 02:56:19;;;;;;;15.10;6.73;;;;;;;12.64;100.00;96394.19;5034297;28;20162;-71
2023/03/30 02:58:51;;;;;;;13.07;9.10;;;;;;;12.63;100.00;96385.50;5034278;28;20253;-71
2023/03/30 03:01:31;;;;;;;13.27;7.70;;;;;;;12.63;100.00;96374.97;5034107;28;20241;-71
2023/03/30 03:03:58;;;;;;;11.80;5.57;;;;;;;12.57;100.00;96377.81;5034651;28;20667;-70
2023/03/30 03:06:25;;;;;;;10.73;6.13;;;;;;;12.57;100.00;96362.03;5034103;28;20225;-70
2023/03/30 03:08:54;;;;;;;10.90;5.23;;;;;;;12.48;100.00;96369.59;5033597;28;20178;-70
2023/03/30 03:11:20;;;;;;;13.60;6.53;;;;;;;12.45;100.00;96347.22;5034001;28;20638;-70
2023/03/30 03:13:45;;;;;;;10.97;4.63;;;;;;;12.29;100.00;96344.69;5018023;28;20291;-70
2023/03/30 03:16:12;;;;;;;10.60;5.23;;;;;;;12.20;100.00;96333.03;5033243;28;20189;-70
2023/03/30 03:18:40;;;;;;;10.20;5.50;;;;;;;12.16;100.00;96318.78;5027670;28;20184;-70
2023/03/30 03:21:07;;;;;;;11.77;5.40;;;;;;;12.16;100.00;96314.31;5014602;28;20193;-70
2023/03/30 03:23:33;;;;;;;15.73;5.27;;;;;;;12.18;100.00;96312.25;5014108;28;20191;-70
2023/03/30 03:25:59;;;;;;;15.07;5.50;;;;;;;12.15;100.00;96306.72;5014464;28;20182;-70
2023/03/30 03:28:25;;;;;;;10.53;5.60;;;;;;;12.18;100.00;96314.88;5014643;28;20211;-70
2023/03/30 03:30:51;;;;;;;8.93;5.50;;;;;;;12.12;100.00;96318.50;5014250;28;20187;-70
2023/03/30 03:33:19;;;;;;;14.73;5.43;;;;;;;12.12;100.00;96310.63;5025417;28;20198;-70
2023/03/30 03:35:44;;;;;;;15.30;5.27;;;;;;;12.16;100.00;96300.41;5033353;28;20244;-70
2023/03/30 03:38:10;;;;;;;10.63;8.53;;;;;;;12.14;100.00;96295.41;5017425;28;20198;-70
2023/03/30 03:40:36;;;;;;;16.07;11.60;;;;;;;12.11;100.00;96300.34;5033439;28;20175;-70
2023/03/30 03:43:01;;;;;;;14.07;12.27;;;;;;;12.08;100.00;96283.25;5011058;28;20586;-70
2023/03/30 03:45:26;;;;;;;15.20;13.90;;;;;;;12.08;100.00;96288.50;5023204;28;20643;-70
2023/03/30 03:47:52;;;;;;;20.07;13.33;;;;;;;12.07;100.00;96294.81;5018672;28;20218;-70
2023/03/30 03:50:18;;;;;;;15.17;12.67;;;;;;;11.97;100.00;96307.84;5013442;28;20184;-70
2023/03/30 03:52:43;;;;;;;14.63;11.80;;;;;;;12.03;100.00;96312.09;5028674;28;20175;-70
2023/03/30 03:55:09;;;;;;;16.47;8.77;;;;;;;12.06;100.00;96316.84;5013304;28;20219;-70
2023/03/30 03:57:35;;;;;;;16.80;8.57;;;;;;;12.03;100.00;96309.47;5013429;28;20194;-70
2023/03/30 04:00:01;;;;;;;13.57;6.90;;;;;;;12.12;100.00;96304.56;5013610;28;20190;-71
2023/03/30 04:02:27;;;;;;;16.60;7.97;;;;;;;12.14;100.00;96308.53;5028617;28;20309;-69
2023/03/30 04:04:52;;;;;;;16.17;7.50;;;;;;;12.13;100.00;96299.06;5045659;28;20193;-70
2023/03/30 04:07:18;;;;;;;10.27;6.93;;;;;;;12.16;100.00;96292.50;5032591;28;20205;-70
2023/03/30 04:09:43;;;;;;;13.80;7.47;;;;;;;12.18;100.00;96285.19;5032833;28;20263;-70
2023/03/30 04:12:09;;;;;;;13.97;7.17;;;;;;;12.13;100.00;96285.16;5033180;28;20190;-70
2023/03/30 04:14:34;;;;;;;14.03;6.93;;;;;;;12.16;100.00;96284.63;5035587;28;20183;-70
2023/03/30 04:16:59;;;;;;;12.63;7.53;;;;;;;12.19;100.00;96278.91;5032796;28;20178;-70
2023/03/30 04:19:26;;;;;;;15.00;7.37;;;;;;;12.17;100.00;96270.47;5031839;28;20178;-70
2023/03/30 04:21:54;;;;;;;13.27;6.47;;;;;;;12.22;100.00;96250.28;5032741;28;20186;-70
2023/03/30 04:24:21;;;;;;;10.13;5.70;;;;;;;12.24;100.00;96236.91;5048365;28;20244;-70
2023/03/30 04:26:47;;;;;;;10.90;5.40;;;;;;;12.27;100.00;96239.81;5032101;28;20717;-70
2023/03/30 04:29:16;;;;;;;16.40;6.67;;;;;;;12.30;100.00;96241.16;5033622;28;20632;-70
2023/03/30 04:31:45;;;;;;;16.37;6.97;;;;;;;12.30;100.00;96228.81;5032419;28;20666;-70
2023/03/30 04:34:11;;;;;;;13.30;6.83;;;;;;;12.33;100.00;96215.16;5046822;28;20315;-70
2023/03/30 04:36:37;;;;;;;14.40;7.17;;;;;;;12.38;100.00;96215.19;5033434;28;20186;-70
2023/03/30 04:39:05;;;;;;;13.73;11.20;;;;;;;12.36;100.00;96211.25;5018472;28;20224;-70
2023/03/30 04:41:32;;;;;;;18.43;11.33;;;;;;;12.36;100.00;96209.41;5052287;28;20189;-70
2023/03/30 04:44:02;;;;;;;16.93;11.43;;;;;;;12.44;100.00;96195.00;5034784;28;20209;-70
2023/03/30 04:46:27;;;;;;;16.83;14.93;;;;;;;12.49;100.00;96206.34;5031915;28;20249;-70
2023/03/30 04:48:53;;;;;;;12.93;11.53;;;;;;;12.48;100.00;96191.59;5048439;28;20263;-70
2023/03/30 04:51:18;;;;;;;13.87;10.47;;;;;;;12.48;100.00;96204.75;5037437;28;20260;-70
2023/03/30 04:53:43;;;;;;;12.90;9.23;;;;;;;12.49;100.00;96203.72;5044984;28;20225;-70
2023/03/30 04:56:08;;;;;;;15.37;7.57;;;;;;;12.46;100.00;96198.97;5032511;28;20191;-70
2023/03/30 04:58:34;;;;;;;17.37;6.37;;;;;;;12.52;100.00;96193.75;5047742;28;20185;-70
2023/03/30 05:00:59;;;;;;;14.20;5.23;;;;;;;12.53;100.00;96204.03;5032674;28;20256;-70
2023/03/30 05:03:25;;;;;;;14.90;7.67;;;;;;;12.57;100.00;96209.56;5033086;28;20182;-70
2023/03/30 05:05:51;;;;;;;13.57;9.07;;;;;;;12.55;100.00;96214.25;5032652;28;20179;-70
2023/03/30 05:08:16;;;;;;;16.83;10.93;;;;;;;12.52;100.00;96222.66;5014615;28;20697;-71
2023/03/30 05:10:41;;;;;;;14.23;9.10;;;;;;;12.32;100.00;96213.56;5048496;28;20639;-70
2023/03/30 05:13:07;;;;;;;17.07;9.93;;;;;;;12.41;100.00;96206.81;5033913;28;20191;-70
2023/03/30 05:15:32;;;;;;;16.33;11.37;;;;;;;12.28;100.00;96195.94;5014610;28;20183;-70
2023/03/30 05:17:58;;;;;;;20.97;13.63;;;;;;;12.24;100.00;96179.09;5032980;28;20201;-70
2023/03/30 05:20:24;;;;;;;15.97;7.73;;;;;;;12.25;100.00;96186.75;5032128;28;20185;-70
2023/03/30 05:22:49;;;;;;;18.13;7.73;;;;;;;12.23;100.00;96178.31;5033700;28;20182;-70
2023/03/30 05:25:15;;;;;;;13.87;6.63;;;;;;;12.23;100.00;96175.69;5048705;28;20193;-70
2023/03/30 05:27:40;;;;;;;11.57;6.73;;;;;;;12.25;100.00;96180.69;5032338;28;20229;-69
2023/03/30 05:30:07;;;;;;;13.97;6.63;;;;;;;12.33;100.00;96180.19;5041208;28;20206;-69
2023/03/30 05:32:32;;;;;;;14.90;7.17;;;;;;;12.30;100.00;96175.47;5055495;28;20182;-68
2023/03/30 05:34:57;;;;;;;19.90;6.70;;;;;;;12.29;100.00;96172.03;5055549;28;20185;-69
2023/03/30 05:37:23;;;;;;;14.27;5.70;;;;;;;12.29;100.00;96168.63;5038233;28;20536;-69
2023/03/30 05:39:48;;;;;;;16.27;7.43;;;;;;;12.31;100.00;96167.34;5035592;28;20260;-69
2023/03/30 05:42:14;;;;;;;12.63;5.57;;;;;;;12.28;100.00;96180.97;5037385;28;20270;-69
2023/03/30 05:44:39;;;;;;;16.73;6.53;;;;;;;12.27;100.00;96173.31;5017697;28;20645;-69
2023/03/30 05:47:05;;;;;;;14.27;6.07;;;;;;;12.28;100.00;96167.03;5042893;28;20205;-69
2023/03/30 05:49:30;;;;;;;14.00;6.27;;;;;;;12.26;100.00;96153.38;5055294;28;20178;-69
2023/03/30 05:51:55;;;;;;;14.97;6.70;;;;;;;12.22;100.00;96160.94;5054938;28;20186;-69
2023/03/30 05:54:21;;;;;;;14.47;7.30;;;;;;;12.23;100.00;96173.03;5036842;28;20189;-69
2023/03/30 05:56:46;;;;;;;15.13;6.97;;;;;;;12.24;100.00;96174.63;5041180;28;20240;-69
2023/03/30 05:59:12;;;;;;;11.47;6.07;;;;;;;12.24;100.00;96179.09;5042001;28;20189;-69
2023/03/30 06:01:38;;;;;;;11.87;6.10;;;;;;;12.30;100.00;96185.97;5045707;28;20616;-69
2023/03/30 06:04:03;;;;;;;12.37;6.23;;;;;;;12.30;100.00;96201.75;5018552;28;20588;-69
2023/03/30 06:06:31;;;;;;;16.27;6.70;;;;;;;12.27;100.00;96207.47;5020403;28;20326;-70
2023/03/30 06:08:56;;;;;;;10.77;5.83;;;;;;;12.35;100.00;96210.47;5027041;28;20639;-70
2023/03/30 06:11:21;;;;;;;18.37;6.20;;;;;;;12.40;100.00;96215.75;5029939;28;20183;-69
2023/03/30 06:13:47;;;;;;;9.87;5.90;;;;;;;12.37;100.00;96212.84;5022644;28;20217;-70
2023/03/30 06:16:12;;;;;;;16.70;8.30;;;;;;;12.43;100.00;96235.47;5018814;28;20651;-69
2023/03/30 06:18:38;;;;;;;10.03;7.57;;;;;;;12.47;100.00;96258.41;5020843;28;20179;-69
2023/03/30 06:21:07;;;;;;;12.73;5.97;;;;;;;12.42;100.00;96257.56;5032954;28;20270;-69
2023/03/30 06:23:34;;;;;;;15.70;6.10;;;;;;;12.40;100.00;96254.38;5023359;28;20191;-70
2023/03/30 06:26:00;;;;;;;14.87;9.00;;;;;;;12.42;100.00;96258.34;5025477;28;20183;-69
2023/03/30 06:28:26;;;;;;;11.60;8.90;;;;;;;12.35;100.00;96260.38;5025640;28;20281;-69
2023/03/30 06:30:52;;;;;;;12.03;7.20;;;;;;;12.35;100.00;96249.88;5034479;28;20269;-69
2023/03/30 06:33:18;;;;;;;12.17;6.33;;;;;;;12.41;100.00;96245.47;5031940;28;20175;-69
2023/03/30 06:35:48;;;;;;;18.30;6.13;;;;;;;12.54;100.00;96244.25;5033313;28;20189;-71
2023/03/30 06:38:14;;;;;;;11.67;6.10;;;;;;;12.55;100.00;96258.94;5023178;28;20191;-70
2023/03/30 06:40:40;;;;;;;12.53;6.17;;;;;;;12.48;100.00;96254.69;5032565;28;20190;-69
2023/03/30 06:43:07;;;;;;;11.33;5.77;;;;;;;12.59;100.00;96267.94;5019895;28;20583;-69
2023/03/30 06:45:32;;;;;;;14.47;8.57;;;;;;;12.60;100.00;96262.41;5033641;28;20217;-72
2023/03/30 06:47:58;;;;;;;15.33;8.33;;;;;;;12.64;100.00;96253.00;5032111;28;20242;-70
2023/03/30 06:50:23;;;;;;;14.27;7.10;;;;;;;13.06;100.00;96268.78;5014353;28;20245;-69
2023/03/30 06:52:49;;;;;;;12.93;5.43;;;;;;;13.25;100.00;96290.22;5014225;28;20196;-70
2023/03/30 06:55:14;;;;;;;15.53;4.77;;;;;;;13.36;100.00;96294.50;5016885;28;20191;-69
2023/03/30 06:57:39;;;;;;;10.80;5.47;;;;;;;13.09;100.00;96313.00;5030357;28;20187;-71
2023/03/30 07:00:12;;;;;;;15.40;6.60;;;;;;;12.99;100.00;96333.16;5024311;28;20189;-71
2023/03/30 07:02:39;;;;;;;12.77;5.97;;;;;;;13.10;100.00;96327.72;5031684;28;20257;-71
2023/03/30 07:05:06;;;;;;;8.50;5.33;;;;;;;13.04;100.00;96338.50;5018591;28;20201;-71
2023/03/30 07:07:31;;;;;;;12.60;6.43;;;;;;;13.01;100.00;96349.50;5028108;28;20198;-71
2023/03/30 07:09:57;;;;;;;13.30;5.47;;;;;;;12.88;100.00;96350.72;5021507;28;20223;-71
2023/03/30 07:12:22;;;;;;;12.83;5.70;;;;;;;12.89;100.00;96360.19;5022339;28;20663;-71
2023/03/30 07:14:47;;;;;;;9.43;5.20;;;;;;;12.80;100.00;96364.34;5009583;28;20183;-71
2023/03/30 07:17:13;;;;;;;11.93;4.83;;;;;;;12.63;100.00;96372.34;5033130;28;20183;-71
2023/03/30 07:19:38;;;;;;;14.03;4.73;;;;;;;12.63;100.00;96372.34;5015967;28;20187;-71
2023/03/30 07:22:03;;;;;;;10.40;4.83;;;;;;;12.49;100.00;96373.78;5014438;28;20500;-71
2023/03/30 07:24:30;;;;;;;13.27;6.03;;;;;;;12.50;100.00;96376.16;5021785;28;20290;-71
2023/03/30 07:26:56;;;;;;;11.57;7.07;;;;;;;12.48;100.00;96380.09;5018528;28;20205;-71
2023/03/30 07:29:21;;;;;;;11.87;7.60;;;;;;;12.36;100.00;96388.13;5033425;28;20182;-71
2023/03/30 07:31:47;;;;;;;17.30;10.27;;;;;;;12.06;100.00;96393.03;5033732;28;20190;-70
2023/03/30 07:34:13;;;;;;;14.70;11.23;;;;;;;11.95;100.00;96405.25;5030347;28;20190;-71
2023/03/30 07:36:39;;;;;;;10.73;7.40;;;;;;;11.89;100.00;96405.44;5015400;28;20777;-71
2023/03/30 07:39:06;;;;;;;14.87;7.00;;;;;;;11.76;100.00;96398.69;5021564;28;20190;-71
2023/03/30 07:41:32;;;;;;;13.50;6.00;;;;;;;11.79;100.00;96400.06;5020512;28;20183;-71
2023/03/30 07:43:57;;;;;;;8.43;5.40;;;;;;;11.64;100.00;96384.88;5030748;28;20689;-71
2023/03/30 07:46:23;;;;;;;10.20;7.20;;;;;;;11.50;100.00;96370.50;5021802;28;20187;-70
2023/03/30 07:48:48;;;;;;;9.03;5.73;;;;;;;11.48;100.00;96365.47;5022517;28;20273;-70
2023/03/30 07:51:13;;;;;;;12.97;6.13;;;;;;;11.50;100.00;96357.38;5013055;28;20187;-70
2023/03/30 07:53:39;;;;;;;12.67;6.90;;;;;;;11.55;100.00;96383.69;5016442;28;20202;-69
2023/03/30 07:56:05;;;;;;;9.53;5.90;;;;;;;11.57;100.00;96379.00;5033476;28;20178;-70
2023/03/30 07:58:31;;;;;;;9.93;6.33;;;;;;;11.49;100.00;96380.19;5033507;28;20574;-70
2023/03/30 08:00:57;;;;;;;9.93;7.47;;;;;;;11.43;100.00;96362.00;5035093;28;20182;-70
2023/03/30 08:03:23;;;;;;;9.03;6.30;;;;;;;11.29;100.00;96355.53;5053017;28;20650;-70
2023/03/30 08:05:58;;;;;;;12.57;7.40;;;;;;;11.33;100.00;96361.88;5048200;28;20213;-70
2023/03/30 08:08:23;;;;;;;10.87;6.87;;;;;;;11.39;100.00;96356.44;5041139;28;20208;-70
2023/03/30 08:10:49;;;;;;;9.77;6.37;;;;;;;11.52;100.00;96360.56;5052692;28;20174;-70
2023/03/30 08:13:14;;;;;;;7.93;5.83;;;;;;;11.50;100.00;96381.78;5039029;28;20185;-70
2023/03/30 08:15:40;;;;;;;11.03;6.30;;;;;;;11.48;100.00;96396.97;5049677;28;20685;-70
2023/03/30 08:18:06;;;;;;;8.33;5.97;;;;;;;11.44;100.00;96413.44;5032399;28;20568;-70
2023/03/30 08:20:36;;;;;;;7.77;5.53;;;;;;;11.44;100.00;96429.19;5029552;28;20188;-70
2023/03/30 08:23:03;;;;;;;6.60;5.90;;;;;;;11.29;100.00;96439.47;5051842;28;20650;-70
2023/03/30 08:25:28;;;;;;;7.63;5.77;;;;;;;11.38;100.00;96449.31;5035590;28;20178;-70
2023/03/30 08:27:53;;;;;;;8.57;5.30;;;;;;;11.32;100.00;96454.72;5050403;28;20300;-71
2023/03/30 08:30:19;;;;;;;11.87;6.50;;;;;;;11.19;100.00;96463.72;5051778;28;20186;-70
2023/03/30 08:32:44;;;;;;;13.00;5.37;;;;;;;11.15;100.00;96455.53;5045878;28;20225;-70
2023/03/30 08:35:10;;;;;;;13.00;5.33;;;;;;;11.22;100.00;96437.00;5032804;28;20663;-70
2023/03/30 08:37:36;;;;;;;8.93;5.20;;;;;;;11.43;100.00;96449.41;5033267;28;20524;-71
2023/03/30 08:40:04;;;;;;;11.40;5.10;;;;;;;11.55;100.00;96449.31;5031910;28;20189;-71
2023/03/30 08:42:54;;;;;;;9.57;5.67;;;;;;;11.46;100.00;96442.88;5032137;28;20178;-70
2023/03/30 08:45:20;;;;;;;10.00;4.90;;;;;;;11.58;100.00;96449.63;5031992;28;20178;-71
2023/03/30 08:47:51;;;;;;;10.57;5.57;;;;;;;11.58;100.00;96443.59;5033011;28;20202;-71
2023/03/30 08:50:30;;;;;;;10.63;5.13;;;;;;;11.63;100.00;96448.91;5032744;28;20174;-71
2023/03/30 08:52:56;;;;;;;9.57;5.37;;;;;;;11.74;100.00;96436.75;5034909;28;20232;-71
2023/03/30 08:55:46;;;;;;;5.90;5.00;;;;;;;11.75;100.00;96426.00;5052238;28;20185;-71
2023/03/30 08:58:22;;;;;;;7.90;6.10;;;;;;;11.77;100.00;96413.41;5048119;28;20181;-71
2023/03/30 09:00:51;;;;;;;12.83;6.07;;;;;;;11.71;100.00;96397.81;5040144;28;20190;-71
2023/03/30 09:03:31;;;;;;;8.10;4.60;;;;;;;11.71;100.00;96387.31;5051661;28;20170;-71
2023/03/30 09:06:10;;;;;;;7.90;4.80;;;;;;;11.66;100.00;96396.72;5036285;28;20265;-71
2023/03/30 09:08:36;;;;;;;9.93;5.03;;;;;;;11.58;100.00;96391.91;5036230;28;20191;-71
2023/03/30 09:11:08;;;;;;;7.63;5.37;;;;;;;11.57;100.00;96379.81;5053779;28;20281;-71
2023/03/30 09:13:36;;;;;;;8.20;5.53;;;;;;;11.44;100.00;96381.97;5055387;28;20166;-71
2023/03/30 09:16:09;;;;;;;8.17;4.80;;;;;;;11.31;100.00;96388.38;5019478;28;20225;-71
2023/03/30 09:18:37;;;;;;;9.27;5.60;;;;;;;11.31;100.00;96374.44;5036120;28;20183;-71
2023/03/30 09:21:04;;;;;;;14.53;5.67;;;;;;;11.23;100.00;96352.81;5036092;28;20175;-71
2023/03/30 09:23:31;;;;;;;7.10;5.43;;;;;;;11.21;100.00;96357.50;5040272;28;20189;-72
2023/03/30 09:26:15;;;;;;;6.07;4.53;;;;;;;11.11;100.00;96352.13;5052362;28;20186;-71
2023/03/30 09:29:12;;;;;;;6.07;4.37;;;;;;;11.11;100.00;96346.06;5054903;28;20205;-71
2023/03/30 09:31:40;;;;;;;5.30;4.00;;;;;;;11.20;100.00;96337.56;5052638;28;20548;-72
2023/03/30 09:34:20;;;;;;;7.93;4.67;;;;;;;11.34;100.00;96345.88;5054691;28;20201;-71
2023/03/30 09:37:10;;;;;;;6.03;4.17;;;;;;;11.34;100.00;96366.09;5055367;28;20181;-71
2023/03/30 09:39:36;;;;;;;5.53;4.33;;;;;;;11.38;100.00;96361.94;5053409;28;20178;-71
2023/03/30 09:42:13;;;;;;;4.97;4.57;;;;;;;11.42;100.00;96366.47;5043317;28;20185;-72
2023/03/30 09:44:46;;;;;;;7.03;4.50;;;;;;;11.47;100.00;96377.03;5054844;28;20224;-72
2023/03/30 09:47:23;;;;;;;4.87;4.50;;;;;;;11.45;100.00;96389.59;5035112;28;20628;-72
2023/03/30 09:49:57;;;;;;;7.37;4.53;;;;;;;11.57;100.00;96392.94;5036962;28;20178;-72
2023/03/30 09:52:26;;;;;;;5.50;4.03;;;;;;;11.67;100.00;96390.44;5043674;28;20224;-72
2023/03/30 09:54:51;;;;;;;9.80;4.13;;;;;;;11.64;100.00;96396.19;5034710;28;20194;-72
2023/03/30 09:57:31;;;;;;;5.70;3.67;;;;;;;11.74;100.00;96400.78;5035469;28;20183;-71
2023/03/30 09:59:59;;;;;;;5.10;4.70;;;;;;;11.71;100.00;96398.59;5035476;28;20178;-71
2023/03/30 10:02:29;;;;;;;5.27;4.77;;;;;;;11.68;100.00;96406.97;5047754;28;20225;-71
2023/03/30 10:05:01;;;;;;;7.43;4.43;;;;;;;11.68;100.00;96413.03;5038508;28;20262;-71
2023/03/30 10:07:33;;;;;;;5.07;4.57;;;;;;;11.85;100.00;96415.63;5050670;28;20530;-72
2023/03/30 10:10:12;;;;;;;6.13;5.63;;;;;;;11.97;100.00;96415.53;5028705;28;20237;-71
2023/03/30 10:12:37;;;;;;;9.10;5.37;;;;;;;12.27;100.00;96418.50;5052580;28;20231;-71
2023/03/30 10:15:04;;;;;;;7.13;4.30;;;;;;;12.36;100.00;96405.72;5054541;28;20182;-71
2023/03/30 10:17:30;;;;;;;5.90;5.30;;;;;;;12.33;100.00;96404.38;5038101;28;20273;-72
2023/03/30 10:20:14;;;;;;;5.10;4.60;;;;;;;12.57;100.00;96409.34;5045645;28;20193;-72
2023/03/30 10:23:17;;;;;;;6.17;5.47;;;;;;;12.69;100.00;96412.63;5036075;28;20193;-71
2023/03/30 10:25:45;;;;;;;5.50;4.87;;;;;;;12.85;100.00;96407.25;5028441;28;20554;-71
2023/03/30 10:28:26;;;;;;;9.27;6.30;;;;;;;13.00;100.00;96406.59;5051854;28;20210;-71
2023/03/30 10:30:56;;;;;;;6.23;5.67;;;;;;;13.16;100.00;96408.31;5034910;28;20641;-71
2023/03/30 10:33:23;;;;;;;5.33;4.93;;;;;;;13.14;100.00;96405.16;5034141;28;20214;-71
2023/03/30 10:35:52;;;;;;;9.77;6.27;;;;;;;13.07;100.00;96396.66;5034942;28;20193;-71
2023/03/30 10:38:18;;;;;;;4.77;4.47;;;;;;;12.79;100.00;96395.09;5036548;28;20631;-70
2023/03/30 10:40:46;;;;;;;5.30;4.90;;;;;;;12.92;100.00;96386.03;5039483;28;20195;-70
2023/03/30 10:43:19;;;;;;;6.00;5.40;;;;;;;13.00;100.00;96385.53;5017711;28;20221;-70
2023/03/30 10:45:48;;;;;;;7.87;7.33;;;;;;;12.91;100.00;96390.47;5016433;28;20198;-71
2023/03/30 10:48:22;;;;;;;10.83;10.13;;;;;;;12.84;100.00;96392.53;5047733;28;20210;-71
2023/03/30 10:50:59;;;;;;;14.30;13.47;;;;;;;12.80;100.00;96399.34;5034551;28;20186;-71
2023/03/30 10:53:37;;;;;;;10.07;9.27;;;;;;;12.68;100.00;96403.16;5018620;28;20289;-71
2023/03/30 10:56:05;;;;;;;8.57;7.77;;;;;;;12.58;100.00;96395.97;5046024;28;20177;-71
2023/03/30 10:58:58;;;;;;;6.43;5.93;;;;;;;12.65;100.00;96391.28;5050886;28;20198;-70
2023/03/30 11:01:58;;;;;;;6.10;5.57;;;;;;;12.67;100.00;96391.84;5029514;28;20223;-70
2023/03/30 11:05:05;;;;;;;5.83;5.27;;;;;;;13.11;100.00;96391.66;5025587;28;20186;-70
2023/03/30 11:08:00;;;;;;;8.00;5.93;;;;;;;13.38;100.00;96376.63;5013770;28;20214;-70
2023/03/30 11:10:28;;;;;;;6.83;6.17;;;;;;;13.20;100.00;96377.06;5031403;28;20189;-70
2023/03/30 11:12:59;;;;;;;6.53;5.93;;;;;;;13.25;100.00;96356.81;5032297;28;20182;-70
2023/03/30 11:15:30;;;;;;;7.70;6.40;;;;;;;13.40;100.00;96382.44;5033788;28;20647;-69
2023/03/30 11:18:02;;;;;;;5.83;4.60;;;;;;;13.53;100.00;96386.47;5033627;28;20186;-69
2023/03/30 11:20:31;;;;;;;9.63;8.77;;;;;;;13.42;100.00;96382.19;5027837;28;20183;-69
2023/03/30 11:23:10;;;;;;;5.40;4.60;;;;;;;13.55;100.00;96374.63;5022375;28;20190;-69
2023/03/30 11:25:51;;;;;;;8.90;8.10;;;;;;;13.56;100.00;96383.31;5018996;28;20189;-70
2023/03/30 11:28:41;;;;;;;5.07;4.67;;;;;;;13.69;100.00;96383.66;5013709;28;20195;-70
2023/03/30 11:31:49;;;;;;;9.67;8.97;;;;;;;13.97;100.00;96371.16;5013913;28;20186;-70
2023/03/30 11:34:59;;;;;;;6.73;5.13;;;;;;;14.07;100.00;96371.19;4990172;28;20674;-70